sensor_id;sensor_type;location;lat;lon;timestamp;P1;durP1;ratioP1;P2;durP2;ratioP2
73599;SDS011;61877;48.246;9.220;2023-05-10T00:00:33;6.17;;;2.20;;
73599;SDS011;61877;48.246;9.220;2023-05-10T00:02:58;6.32;;;2.10;;
73599;SDS011;61877;48.246;9.220;2023-05-10T00:05:24;6.13;;;1.90;;
73599;SDS011;61877;48.246;9.220;2023-05-10T00:07:51;6.28;;;2.20;;
73599;SDS011;61877;48.246;9.220;2023-05-10T00:10:17;6.43;;;2.20;;
73599;SDS011;61877;48.246;9.220;2023-05-10T00:12:42;5.60;;;2.07;;
73599;SDS011;61877;48.246;9.220;2023-05-10T00:15:09;5.72;;;2.03;;
73599;SDS011;61877;48.246;9.220;2023-05-10T00:17:35;6.13;;;2.00;;
73599;SDS011;61877;48.246;9.220;2023-05-10T00:20:01;5.90;;;2.07;;
73599;SDS011;61877;48.246;9.220;2023-05-10T00:22:26;5.97;;;2.03;;
73599;SDS011;61877;48.246;9.220;2023-05-10T00:24:53;7.20;;;1.70;;
73599;SDS011;61877;48.246;9.220;2023-05-10T00:27:18;4.72;;;1.13;;
73599;SDS011;61877;48.246;9.220;2023-05-10T00:29:44;4.30;;;1.20;;
73599;SDS011;61877;48.246;9.220;2023-05-10T00:32:11;4.85;;;1.40;;
73599;SDS011;61877;48.246;9.220;2023-05-10T00:34:36;4.60;;;1.13;;
73599;SDS011;61877;48.246;9.220;2023-05-10T00:37:03;4.10;;;1.03;;
73599;SDS011;61877;48.246;9.220;2023-05-10T00:39:28;4.80;;;0.90;;
73599;SDS011;61877;48.246;9.220;2023-05-10T00:41:54;4.97;;;1.33;;
73599;SDS011;61877;48.246;9.220;2023-05-10T00:44:22;5.00;;;1.33;;
73599;SDS011;61877;48.246;9.220;2023-05-10T00:46:48;5.38;;;1.30;;
73599;SDS011;61877;48.246;9.220;2023-05-10T00:49:16;5.00;;;1.37;;
73599;SDS011;61877;48.246;9.220;2023-05-10T00:51:41;5.55;;;1.20;;
73599;SDS011;61877;48.246;9.220;2023-05-10T00:54:09;5.45;;;1.50;;
73599;SDS011;61877;48.246;9.220;2023-05-10T00:56:36;4.07;;;1.00;;
73599;SDS011;61877;48.246;9.220;2023-05-10T00:59:03;3.88;;;1.08;;
73599;SDS011;61877;48.246;9.220;2023-05-10T01:01:29;5.18;;;1.38;;
73599;SDS011;61877;48.246;9.220;2023-05-10T01:03:55;4.30;;;1.10;;
73599;SDS011;61877;48.246;9.220;2023-05-10T01:06:23;4.40;;;1.30;;
73599;SDS011;61877;48.246;9.220;2023-05-10T01:08:49;4.43;;;1.40;;
73599;SDS011;61877;48.246;9.220;2023-05-10T01:11:15;4.30;;;1.20;;
73599;SDS011;61877;48.246;9.220;2023-05-10T01:13:41;4.88;;;1.30;;
73599;SDS011;61877;48.246;9.220;2023-05-10T01:16:08;4.90;;;1.40;;
73599;SDS011;61877;48.246;9.220;2023-05-10T01:18:34;4.77;;;1.20;;
73599;SDS011;61877;48.246;9.220;2023-05-10T01:21:04;4.70;;;1.30;;
73599;SDS011;61877;48.246;9.220;2023-05-10T01:23:48;4.07;;;1.08;;
73599;SDS011;61877;48.246;9.220;2023-05-10T01:26:39;4.70;;;1.33;;
73599;SDS011;61877;48.246;9.220;2023-05-10T01:29:31;4.40;;;1.30;;
73599;SDS011;61877;48.246;9.220;2023-05-10T01:32:26;4.37;;;1.20;;
73599;SDS011;61877;48.246;9.220;2023-05-10T01:35:00;6.35;;;1.38;;
73599;SDS011;61877;48.246;9.220;2023-05-10T01:37:33;4.70;;;1.30;;
73599;SDS011;61877;48.246;9.220;2023-05-10T01:40:08;5.30;;;1.20;;
73599;SDS011;61877;48.246;9.220;2023-05-10T01:42:44;5.40;;;1.50;;
73599;SDS011;61877;48.246;9.220;2023-05-10T01:45:18;4.80;;;1.40;;
73599;SDS011;61877;48.246;9.220;2023-05-10T01:47:52;4.82;;;1.20;;
73599;SDS011;61877;48.246;9.220;2023-05-10T01:50:24;4.20;;;1.08;;
73599;SDS011;61877;48.246;9.220;2023-05-10T01:52:56;4.45;;;1.25;;
73599;SDS011;61877;48.246;9.220;2023-05-10T01:55:25;4.30;;;1.30;;
73599;SDS011;61877;48.246;9.220;2023-05-10T01:57:58;4.40;;;1.20;;
73599;SDS011;61877;48.246;9.220;2023-05-10T02:00:28;4.97;;;1.30;;
73599;SDS011;61877;48.246;9.220;2023-05-10T02:02:56;5.22;;;1.50;;
73599;SDS011;61877;48.246;9.220;2023-05-10T02:05:28;5.18;;;1.40;;
73599;SDS011;61877;48.246;9.220;2023-05-10T02:07:58;4.60;;;1.40;;
73599;SDS011;61877;48.246;9.220;2023-05-10T02:10:32;4.53;;;1.30;;
73599;SDS011;61877;48.246;9.220;2023-05-10T02:13:00;7.00;;;2.30;;
73599;SDS011;61877;48.246;9.220;2023-05-10T02:15:28;5.20;;;2.05;;
73599;SDS011;61877;48.246;9.220;2023-05-10T02:18:03;5.30;;;2.30;;
73599;SDS011;61877;48.246;9.220;2023-05-10T02:20:34;6.20;;;3.47;;
73599;SDS011;61877;48.246;9.220;2023-05-10T02:23:01;6.83;;;2.50;;
73599;SDS011;61877;48.246;9.220;2023-05-10T02:25:29;5.35;;;1.80;;
73599;SDS011;61877;48.246;9.220;2023-05-10T02:27:56;4.80;;;1.65;;
73599;SDS011;61877;48.246;9.220;2023-05-10T02:30:25;5.13;;;1.90;;
73599;SDS011;61877;48.246;9.220;2023-05-10T02:32:58;5.72;;;1.45;;
73599;SDS011;61877;48.246;9.220;2023-05-10T02:35:28;4.70;;;1.40;;
73599;SDS011;61877;48.246;9.220;2023-05-10T02:38:00;4.40;;;1.40;;
73599;SDS011;61877;48.246;9.220;2023-05-10T02:40:26;4.60;;;1.30;;
73599;SDS011;61877;48.246;9.220;2023-05-10T02:42:54;5.20;;;2.40;;
73599;SDS011;61877;48.246;9.220;2023-05-10T02:45:21;6.28;;;1.80;;
73599;SDS011;61877;48.246;9.220;2023-05-10T02:47:50;4.83;;;1.60;;
73599;SDS011;61877;48.246;9.220;2023-05-10T02:50:17;4.70;;;1.55;;
73599;SDS011;61877;48.246;9.220;2023-05-10T02:58:52;6.00;;;1.58;;
73599;SDS011;61877;48.246;9.220;2023-05-10T03:01:18;4.80;;;1.57;;
73599;SDS011;61877;48.246;9.220;2023-05-10T03:03:44;4.78;;;1.50;;
73599;SDS011;61877;48.246;9.220;2023-05-10T03:09:12;6.38;;;1.30;;
73599;SDS011;61877;48.246;9.220;2023-05-10T03:11:46;5.05;;;1.60;;
73599;SDS011;61877;48.246;9.220;2023-05-10T03:17:15;5.47;;;1.58;;
73599;SDS011;61877;48.246;9.220;2023-05-10T03:19:53;5.20;;;1.52;;
73599;SDS011;61877;48.246;9.220;2023-05-10T03:22:23;5.63;;;1.80;;
73599;SDS011;61877;48.246;9.220;2023-05-10T03:25:05;7.45;;;2.05;;
73599;SDS011;61877;48.246;9.220;2023-05-10T03:27:40;5.90;;;1.80;;
73599;SDS011;61877;48.246;9.220;2023-05-10T03:30:12;4.90;;;1.50;;
73599;SDS011;61877;48.246;9.220;2023-05-10T03:33:07;5.28;;;1.73;;
73599;SDS011;61877;48.246;9.220;2023-05-10T03:35:45;5.78;;;1.70;;
73599;SDS011;61877;48.246;9.220;2023-05-10T03:38:11;5.03;;;1.58;;
73599;SDS011;61877;48.246;9.220;2023-05-10T04:30:03;5.97;;;2.10;;
73599;SDS011;61877;48.246;9.220;2023-05-10T04:32:38;6.95;;;2.05;;
73599;SDS011;61877;48.246;9.220;2023-05-10T04:35:12;5.65;;;2.00;;
73599;SDS011;61877;48.246;9.220;2023-05-10T06:17:41;6.55;;;2.72;;
73599;SDS011;61877;48.246;9.220;2023-05-10T06:20:07;7.50;;;2.25;;
73599;SDS011;61877;48.246;9.220;2023-05-10T06:22:42;7.03;;;2.83;;
73599;SDS011;61877;48.246;9.220;2023-05-10T06:25:10;6.03;;;2.20;;
73599;SDS011;61877;48.246;9.220;2023-05-10T06:27:36;6.30;;;2.17;;
73599;SDS011;61877;48.246;9.220;2023-05-10T06:30:01;7.27;;;2.10;;
73599;SDS011;61877;48.246;9.220;2023-05-10T06:32:27;7.30;;;2.47;;
73599;SDS011;61877;48.246;9.220;2023-05-10T06:34:56;5.40;;;1.87;;
73599;SDS011;61877;48.246;9.220;2023-05-10T06:37:22;6.28;;;1.60;;
73599;SDS011;61877;48.246;9.220;2023-05-10T06:39:51;6.33;;;2.30;;
73599;SDS011;61877;48.246;9.220;2023-05-10T06:42:23;6.30;;;2.03;;
73599;SDS011;61877;48.246;9.220;2023-05-10T06:44:48;6.90;;;1.97;;
73599;SDS011;61877;48.246;9.220;2023-05-10T06:47:16;8.02;;;1.98;;
73599;SDS011;61877;48.246;9.220;2023-05-10T06:49:51;8.37;;;2.00;;
73599;SDS011;61877;48.246;9.220;2023-05-10T06:52:22;7.68;;;2.20;;
73599;SDS011;61877;48.246;9.220;2023-05-10T06:54:48;6.43;;;1.75;;
73599;SDS011;61877;48.246;9.220;2023-05-10T06:59:57;5.43;;;1.52;;
73599;SDS011;61877;48.246;9.220;2023-05-10T07:02:28;7.07;;;2.00;;
73599;SDS011;61877;48.246;9.220;2023-05-10T07:07:44;6.55;;;1.70;;
73599;SDS011;61877;48.246;9.220;2023-05-10T07:10:14;6.03;;;1.90;;
73599;SDS011;61877;48.246;9.220;2023-05-10T07:12:39;5.80;;;1.58;;
73599;SDS011;61877;48.246;9.220;2023-05-10T07:15:11;5.30;;;1.80;;
73599;SDS011;61877;48.246;9.220;2023-05-10T07:17:39;6.70;;;1.90;;
73599;SDS011;61877;48.246;9.220;2023-05-10T07:20:05;5.75;;;1.90;;
73599;SDS011;61877;48.246;9.220;2023-05-10T07:22:56;6.18;;;1.80;;
73599;SDS011;61877;48.246;9.220;2023-05-10T07:25:24;5.53;;;1.70;;
73599;SDS011;61877;48.246;9.220;2023-05-10T07:27:49;5.88;;;1.98;;
73599;SDS011;61877;48.246;9.220;2023-05-10T07:30:21;6.37;;;1.87;;
73599;SDS011;61877;48.246;9.220;2023-05-10T07:32:49;6.32;;;2.00;;
73599;SDS011;61877;48.246;9.220;2023-05-10T07:35:18;6.13;;;1.97;;
73599;SDS011;61877;48.246;9.220;2023-05-10T07:37:46;5.60;;;2.10;;
73599;SDS011;61877;48.246;9.220;2023-05-10T07:40:17;5.38;;;1.75;;
73599;SDS011;61877;48.246;9.220;2023-05-10T07:42:45;7.45;;;2.00;;
73599;SDS011;61877;48.246;9.220;2023-05-10T07:45:13;6.55;;;2.13;;
73599;SDS011;61877;48.246;9.220;2023-05-10T07:50:36;5.57;;;2.03;;
73599;SDS011;61877;48.246;9.220;2023-05-10T07:53:01;5.10;;;1.50;;
73599;SDS011;61877;48.246;9.220;2023-05-10T07:55:41;5.03;;;1.65;;
73599;SDS011;61877;48.246;9.220;2023-05-10T07:58:16;4.90;;;1.33;;
73599;SDS011;61877;48.246;9.220;2023-05-10T08:00:55;5.65;;;1.70;;
73599;SDS011;61877;48.246;9.220;2023-05-10T13:14:07;5.40;;;1.60;;
73599;SDS011;61877;48.246;9.220;2023-05-10T13:16:35;4.97;;;1.48;;
73599;SDS011;61877;48.246;9.220;2023-05-10T13:19:09;5.27;;;1.80;;
73599;SDS011;61877;48.246;9.220;2023-05-10T13:24:21;5.65;;;2.00;;
73599;SDS011;61877;48.246;9.220;2023-05-10T13:27:20;5.50;;;1.70;;
73599;SDS011;61877;48.246;9.220;2023-05-10T13:30:01;5.97;;;1.60;;
73599;SDS011;61877;48.246;9.220;2023-05-10T13:32:33;6.05;;;2.10;;
73599;SDS011;61877;48.246;9.220;2023-05-10T13:35:07;6.35;;;1.90;;
73599;SDS011;61877;48.246;9.220;2023-05-10T13:37:37;6.30;;;1.90;;
73599;SDS011;61877;48.246;9.220;2023-05-10T13:43:01;6.22;;;1.80;;
73599;SDS011;61877;48.246;9.220;2023-05-10T13:45:36;6.22;;;2.00;;
73599;SDS011;61877;48.246;9.220;2023-05-10T13:51:04;5.90;;;1.90;;
73599;SDS011;61877;48.246;9.220;2023-05-10T13:53:29;5.80;;;1.70;;
73599;SDS011;61877;48.246;9.220;2023-05-10T13:55:55;6.17;;;1.80;;
73599;SDS011;61877;48.246;9.220;2023-05-10T13:58:20;5.70;;;2.00;;
73599;SDS011;61877;48.246;9.220;2023-05-10T14:00:47;5.30;;;1.70;;
73599;SDS011;61877;48.246;9.220;2023-05-10T14:03:12;6.18;;;1.90;;
73599;SDS011;61877;48.246;9.220;2023-05-10T14:10:44;5.60;;;1.80;;
73599;SDS011;61877;48.246;9.220;2023-05-10T14:13:09;5.50;;;1.83;;
73599;SDS011;61877;48.246;9.220;2023-05-10T14:15:35;6.07;;;1.50;;
73599;SDS011;61877;48.246;9.220;2023-05-10T14:18:02;5.60;;;1.90;;
73599;SDS011;61877;48.246;9.220;2023-05-10T14:20:27;5.88;;;1.48;;
73599;SDS011;61877;48.246;9.220;2023-05-10T14:22:53;5.53;;;1.60;;
73599;SDS011;61877;48.246;9.220;2023-05-10T14:31:29;5.40;;;1.80;;
73599;SDS011;61877;48.246;9.220;2023-05-10T14:42:10;5.70;;;2.10;;
73599;SDS011;61877;48.246;9.220;2023-05-10T14:44:38;6.10;;;2.00;;
73599;SDS011;61877;48.246;9.220;2023-05-10T14:47:04;6.25;;;1.63;;
73599;SDS011;61877;48.246;9.220;2023-05-10T14:49:29;6.77;;;1.60;;
73599;SDS011;61877;48.246;9.220;2023-05-10T14:51:58;5.63;;;2.03;;
73599;SDS011;61877;48.246;9.220;2023-05-10T14:54:23;5.32;;;1.65;;
73599;SDS011;61877;48.246;9.220;2023-05-10T14:56:49;5.45;;;1.70;;
73599;SDS011;61877;48.246;9.220;2023-05-10T15:41:02;5.75;;;1.75;;
73599;SDS011;61877;48.246;9.220;2023-05-10T15:43:28;5.47;;;1.60;;
73599;SDS011;61877;48.246;9.220;2023-05-10T15:49:06;6.73;;;2.50;;
73599;SDS011;61877;48.246;9.220;2023-05-10T15:51:32;5.95;;;1.88;;
73599;SDS011;61877;48.246;9.220;2023-05-10T15:53:57;6.73;;;2.37;;
73599;SDS011;61877;48.246;9.220;2023-05-10T15:59:19;5.27;;;1.60;;
73599;SDS011;61877;48.246;9.220;2023-05-10T16:01:44;5.20;;;1.50;;
73599;SDS011;61877;48.246;9.220;2023-05-10T16:04:13;5.23;;;1.90;;
73599;SDS011;61877;48.246;9.220;2023-05-10T16:09:20;5.00;;;1.70;;
73599;SDS011;61877;48.246;9.220;2023-05-10T16:11:46;6.20;;;1.50;;
73599;SDS011;61877;48.246;9.220;2023-05-10T16:14:13;5.93;;;1.33;;
73599;SDS011;61877;48.246;9.220;2023-05-10T16:16:48;5.05;;;1.70;;
73599;SDS011;61877;48.246;9.220;2023-05-10T16:37:17;5.43;;;1.80;;
73599;SDS011;61877;48.246;9.220;2023-05-10T16:58:58;5.40;;;1.40;;
73599;SDS011;61877;48.246;9.220;2023-05-10T17:01:24;5.80;;;1.40;;
73599;SDS011;61877;48.246;9.220;2023-05-10T17:03:50;5.18;;;1.70;;
73599;SDS011;61877;48.246;9.220;2023-05-10T17:06:15;5.00;;;1.50;;
73599;SDS011;61877;48.246;9.220;2023-05-10T17:08:43;5.53;;;1.93;;
73599;SDS011;61877;48.246;9.220;2023-05-10T17:11:08;5.40;;;1.83;;
73599;SDS011;61877;48.246;9.220;2023-05-10T17:13:34;5.55;;;1.70;;
73599;SDS011;61877;48.246;9.220;2023-05-10T17:16:01;7.77;;;4.33;;
73599;SDS011;61877;48.246;9.220;2023-05-10T17:18:26;5.43;;;2.00;;
73599;SDS011;61877;48.246;9.220;2023-05-10T17:20:58;5.33;;;2.00;;
73599;SDS011;61877;48.246;9.220;2023-05-10T17:23:30;5.68;;;2.00;;
73599;SDS011;61877;48.246;9.220;2023-05-10T17:25:58;6.35;;;1.83;;
73599;SDS011;61877;48.246;9.220;2023-05-10T17:28:24;5.60;;;1.73;;
73599;SDS011;61877;48.246;9.220;2023-05-10T17:30:54;5.43;;;1.97;;
73599;SDS011;61877;48.246;9.220;2023-05-10T17:33:23;5.75;;;1.63;;
73599;SDS011;61877;48.246;9.220;2023-05-10T17:36:09;6.30;;;1.83;;
73599;SDS011;61877;48.246;9.220;2023-05-10T17:38:40;7.10;;;2.70;;
73599;SDS011;61877;48.246;9.220;2023-05-10T17:41:09;5.60;;;2.20;;
73599;SDS011;61877;48.246;9.220;2023-05-10T17:43:34;5.43;;;1.80;;
73599;SDS011;61877;48.246;9.220;2023-05-10T17:46:00;6.23;;;2.00;;
73599;SDS011;61877;48.246;9.220;2023-05-10T17:48:30;5.90;;;1.80;;
73599;SDS011;61877;48.246;9.220;2023-05-10T17:50:56;5.10;;;1.67;;
73599;SDS011;61877;48.246;9.220;2023-05-10T17:53:23;5.18;;;1.58;;
73599;SDS011;61877;48.246;9.220;2023-05-10T17:55:57;4.90;;;1.50;;
73599;SDS011;61877;48.246;9.220;2023-05-10T17:58:23;5.67;;;1.40;;
73599;SDS011;61877;48.246;9.220;2023-05-10T18:00:50;5.25;;;1.52;;
73599;SDS011;61877;48.246;9.220;2023-05-10T18:03:19;5.82;;;1.52;;
73599;SDS011;61877;48.246;9.220;2023-05-10T18:05:46;5.82;;;1.67;;
73599;SDS011;61877;48.246;9.220;2023-05-10T18:08:12;5.53;;;1.73;;
73599;SDS011;61877;48.246;9.220;2023-05-10T18:10:38;5.70;;;1.70;;
73599;SDS011;61877;48.246;9.220;2023-05-10T18:13:04;5.72;;;1.80;;
73599;SDS011;61877;48.246;9.220;2023-05-10T18:15:31;4.90;;;1.40;;
73599;SDS011;61877;48.246;9.220;2023-05-10T18:17:57;5.75;;;1.90;;
73599;SDS011;61877;48.246;9.220;2023-05-10T18:20:26;5.95;;;2.03;;
73599;SDS011;61877;48.246;9.220;2023-05-10T18:22:53;8.05;;;2.88;;
73599;SDS011;61877;48.246;9.220;2023-05-10T18:25:19;8.83;;;3.43;;
73599;SDS011;61877;48.246;9.220;2023-05-10T18:27:44;7.10;;;2.35;;
73599;SDS011;61877;48.246;9.220;2023-05-10T18:30:10;7.03;;;2.83;;
73599;SDS011;61877;48.246;9.220;2023-05-10T18:32:39;7.45;;;2.90;;
73599;SDS011;61877;48.246;9.220;2023-05-10T18:35:05;7.50;;;3.03;;
73599;SDS011;61877;48.246;9.220;2023-05-10T18:37:36;8.38;;;2.70;;
73599;SDS011;61877;48.246;9.220;2023-05-10T18:40:04;8.75;;;3.15;;
73599;SDS011;61877;48.246;9.220;2023-05-10T18:42:31;11.15;;;3.58;;
73599;SDS011;61877;48.246;9.220;2023-05-10T18:44:57;9.55;;;3.40;;
73599;SDS011;61877;48.246;9.220;2023-05-10T18:47:22;10.40;;;3.20;;
73599;SDS011;61877;48.246;9.220;2023-05-10T18:49:48;7.87;;;2.97;;
73599;SDS011;61877;48.246;9.220;2023-05-10T18:52:13;8.25;;;2.63;;
73599;SDS011;61877;48.246;9.220;2023-05-10T18:54:39;8.13;;;2.80;;
73599;SDS011;61877;48.246;9.220;2023-05-10T18:57:06;8.13;;;3.00;;
73599;SDS011;61877;48.246;9.220;2023-05-10T18:59:32;14.60;;;6.10;;
73599;SDS011;61877;48.246;9.220;2023-05-10T19:01:57;10.50;;;3.95;;
73599;SDS011;61877;48.246;9.220;2023-05-10T19:04:23;16.63;;;7.17;;
73599;SDS011;61877;48.246;9.220;2023-05-10T19:06:48;11.05;;;5.00;;
73599;SDS011;61877;48.246;9.220;2023-05-10T19:09:14;7.07;;;2.70;;
73599;SDS011;61877;48.246;9.220;2023-05-10T19:20:55;11.02;;;3.85;;
73599;SDS011;61877;48.246;9.220;2023-05-10T19:23:20;7.35;;;2.58;;
73599;SDS011;61877;48.246;9.220;2023-05-10T19:25:46;6.40;;;2.60;;
73599;SDS011;61877;48.246;9.220;2023-05-10T19:28:12;6.13;;;2.30;;
73599;SDS011;61877;48.246;9.220;2023-05-10T19:30:37;20.27;;;8.20;;
73599;SDS011;61877;48.246;9.220;2023-05-10T19:33:03;12.52;;;5.43;;
73599;SDS011;61877;48.246;9.220;2023-05-10T19:35:32;7.30;;;2.63;;
73599;SDS011;61877;48.246;9.220;2023-05-10T19:38:02;7.68;;;2.80;;
73599;SDS011;61877;48.246;9.220;2023-05-10T21:33:13;5.43;;;1.67;;
73599;SDS011;61877;48.246;9.220;2023-05-10T21:35:47;5.90;;;1.90;;
73599;SDS011;61877;48.246;9.220;2023-05-10T21:41:14;5.63;;;1.92;;
73599;SDS011;61877;48.246;9.220;2023-05-10T21:43:44;5.77;;;2.00;;
73599;SDS011;61877;48.246;9.220;2023-05-10T21:46:09;6.60;;;1.90;;
73599;SDS011;61877;48.246;9.220;2023-05-10T21:48:52;5.63;;;1.77;;
73599;SDS011;61877;48.246;9.220;2023-05-10T23:28:12;5.38;;;1.65;;
73599;SDS011;61877;48.246;9.220;2023-05-10T23:30:40;5.47;;;1.97;;
73599;SDS011;61877;48.246;9.220;2023-05-10T23:33:06;5.40;;;1.70;;
73599;SDS011;61877;48.246;9.220;2023-05-10T23:35:39;6.75;;;1.80;;
73599;SDS011;61877;48.246;9.220;2023-05-10T23:38:16;5.17;;;1.50;;
73599;SDS011;61877;48.246;9.220;2023-05-10T23:43:39;5.30;;;1.95;;
73599;SDS011;61877;48.246;9.220;2023-05-10T23:46:05;6.07;;;1.90;;
73599;SDS011;61877;48.246;9.220;2023-05-10T23:48:30;6.13;;;1.90;;
73599;SDS011;61877;48.246;9.220;2023-05-10T23:51:10;5.70;;;1.85;;
73599;SDS011;61877;48.246;9.220;2023-05-10T23:53:35;5.20;;;1.60;;
73599;SDS011;61877;48.246;9.220;2023-05-10T23:56:11;5.97;;;1.90;;
73599;SDS011;61877;48.246;9.220;2023-05-10T23:58:56;6.03;;;1.70;;
